Flugwetter

Flugwetter

Flugplatz Hoherodskopf

METAR

011500Z 29012G17KT 0000 OVC000 00/00 Q1032

Flugplatz Homberg (Ohm)

METAR

011500Z 27010G12KT 9999 OVC017 04/02 Q1032